createdAt,value
2023-01-13T00:02:02.084Z,98.58
2023-01-13T00:04:36.251Z,99.05
2023-01-13T00:07:09.065Z,99.06
2023-01-13T00:09:41.896Z,98.92
2023-01-13T00:12:14.938Z,98.29
2023-01-13T00:14:47.762Z,98.97
2023-01-13T00:17:20.544Z,99.22
2023-01-13T00:19:54.689Z,97.94
2023-01-13T00:22:27.431Z,97.31
2023-01-13T00:25:01.406Z,97.61
2023-01-13T00:27:35.505Z,97.05
2023-01-13T00:30:10.224Z,96.80
2023-01-13T00:32:43.077Z,95.14
2023-01-13T00:35:17.530Z,94.86
2023-01-13T00:37:50.333Z,94.70
2023-01-13T00:40:23.114Z,94.19
2023-01-13T00:43:13.295Z,94.44
2023-01-13T00:45:46.517Z,94.26
2023-01-13T00:48:19.832Z,94.74
2023-01-13T00:50:57.767Z,93.78
2023-01-13T00:53:34.744Z,94.09
2023-01-13T00:56:09.875Z,93.58
2023-01-13T00:58:44.155Z,94.96
2023-01-13T01:01:19.740Z,94.35
2023-01-13T01:03:54.281Z,93.56
2023-01-13T01:06:29.299Z,93.63
2023-01-13T01:09:02.335Z,93.79
2023-01-13T01:11:35.283Z,93.25
2023-01-13T01:14:08.727Z,93.63
2023-01-13T01:16:42.586Z,93.22
2023-01-13T01:19:15.336Z,92.28
2023-01-13T01:21:49.454Z,93.27
2023-01-13T01:24:22.506Z,93.25
2023-01-13T01:26:55.255Z,92.96
2023-01-13T01:29:28.082Z,91.72
2023-01-13T01:32:00.882Z,92.63
2023-01-13T01:34:34.000Z,93.05
2023-01-13T01:37:08.158Z,92.30
2023-01-13T01:39:40.926Z,91.38
2023-01-13T01:42:34.867Z,90.44
2023-01-13T01:45:16.006Z,89.85
2023-01-13T01:47:52.105Z,90.47
2023-01-13T01:50:25.186Z,88.74
2023-01-13T01:53:06.407Z,88.32
2023-01-13T01:55:39.663Z,88.08
2023-01-13T01:58:16.290Z,88.64
2023-01-13T02:00:49.590Z,89.43
2023-01-13T02:03:23.167Z,91.19
2023-01-13T02:05:56.018Z,91.33
2023-01-13T02:08:30.345Z,89.43
2023-01-13T02:11:03.075Z,87.86
2023-01-13T02:13:34.923Z,89.10
2023-01-13T02:16:16.228Z,90.08
2023-01-13T02:18:57.706Z,89.52
2023-01-13T02:22:06.748Z,88.91
2023-01-13T02:25:02.617Z,88.95
2023-01-13T02:28:06.931Z,89.29
2023-01-13T02:31:06.551Z,90.40
2023-01-13T02:33:51.526Z,90.19
2023-01-13T02:36:39.221Z,90.05
2023-01-13T02:39:18.120Z,90.28
2023-01-13T02:42:18.816Z,90.71
2023-01-13T02:44:56.747Z,90.76
2023-01-13T02:47:33.486Z,90.86
2023-01-13T02:50:12.074Z,90.46
2023-01-13T02:52:50.363Z,91.23
2023-01-13T02:55:30.996Z,90.06
2023-01-13T02:58:07.129Z,89.34
2023-01-13T03:00:41.254Z,88.15
2023-01-13T03:03:15.550Z,87.65
2023-01-13T03:05:52.968Z,88.79
2023-01-13T03:08:39.510Z,87.05
2023-01-13T03:11:14.242Z,87.25
2023-01-13T03:14:12.204Z,87.47
2023-01-13T03:16:57.508Z,87.49
2023-01-13T03:19:40.555Z,86.77
2023-01-13T03:22:23.094Z,87.53
2023-01-13T03:25:01.902Z,87.77
2023-01-13T03:27:45.860Z,86.95
2023-01-13T03:30:22.286Z,86.76
2023-01-13T03:32:59.338Z,86.37
2023-01-13T03:35:38.363Z,86.02
2023-01-13T03:38:15.984Z,85.25
2023-01-13T03:40:54.597Z,85.98
2023-01-13T03:43:50.360Z,85.45
2023-01-13T03:46:26.892Z,85.21
2023-01-13T03:49:03.051Z,86.30
2023-01-13T03:51:42.209Z,84.63
2023-01-13T03:54:18.274Z,86.14
2023-01-13T03:56:56.395Z,86.11
2023-01-13T03:59:34.548Z,86.64
2023-01-13T04:02:11.916Z,85.66
2023-01-13T04:04:51.078Z,85.22
2023-01-13T04:07:33.850Z,85.57
2023-01-13T04:10:10.192Z,85.59
2023-01-13T04:13:01.832Z,84.97
2023-01-13T04:15:37.422Z,84.64
2023-01-13T04:18:13.293Z,84.77
2023-01-13T04:20:48.357Z,84.96
2023-01-13T04:23:24.067Z,85.77
2023-01-13T04:25:57.621Z,82.88
2023-01-13T04:28:30.396Z,84.47
2023-01-13T04:31:03.239Z,82.63
2023-01-13T04:33:35.993Z,83.10
2023-01-13T04:36:09.414Z,85.27
2023-01-13T04:38:43.761Z,81.99
2023-01-13T04:41:16.507Z,82.58
2023-01-13T04:43:49.484Z,82.59
2023-01-13T04:46:22.347Z,82.55
2023-01-13T04:48:55.142Z,82.03
2023-01-13T04:51:27.929Z,83.12
2023-01-13T04:54:02.074Z,82.85
2023-01-13T04:56:34.837Z,80.96
2023-01-13T04:59:07.611Z,81.44
2023-01-13T05:01:40.984Z,81.41
2023-01-13T05:04:15.385Z,80.76
2023-01-13T05:06:48.165Z,81.17
2023-01-13T05:09:22.600Z,82.42
2023-01-13T05:12:09.288Z,83.16
2023-01-13T05:14:59.906Z,82.31
2023-01-13T05:17:33.533Z,82.70
2023-01-13T05:20:07.500Z,81.86
2023-01-13T05:22:57.700Z,81.85
2023-01-13T05:25:31.917Z,82.95
2023-01-13T05:28:04.935Z,82.52
2023-01-13T05:30:39.156Z,83.05
2023-01-13T05:33:12.448Z,83.36
2023-01-13T05:35:47.986Z,83.73
2023-01-13T05:38:20.797Z,84.03
2023-01-13T05:41:12.325Z,83.98
2023-01-13T05:43:45.211Z,84.91
2023-01-13T05:46:18.260Z,83.65
2023-01-13T05:48:51.183Z,85.36
2023-01-13T05:51:26.254Z,85.96
2023-01-13T05:53:59.246Z,84.45
2023-01-13T05:56:33.583Z,84.47
2023-01-13T05:59:07.098Z,85.95
2023-01-13T06:01:39.878Z,85.09
2023-01-13T06:04:12.686Z,84.90
2023-01-13T06:06:45.455Z,85.27
2023-01-13T06:09:18.436Z,84.91
2023-01-13T06:11:52.766Z,85.40
2023-01-13T06:14:25.524Z,84.92
2023-01-13T06:16:58.316Z,84.99
2023-01-13T06:19:31.568Z,84.87
2023-01-13T06:22:13.479Z,83.54
2023-01-13T06:24:46.834Z,84.37
2023-01-13T06:27:22.547Z,84.05
2023-01-13T06:29:56.600Z,83.79
2023-01-13T06:32:35.531Z,84.04
2023-01-13T06:35:12.919Z,85.09
2023-01-13T06:37:48.796Z,85.18
2023-01-13T06:40:22.334Z,84.19
2023-01-13T06:43:17.843Z,82.82
2023-01-13T06:45:53.727Z,83.83
2023-01-13T06:48:32.861Z,83.82
2023-01-13T06:51:06.058Z,83.14
2023-01-13T06:53:38.853Z,82.48
2023-01-13T06:56:11.698Z,82.73
2023-01-13T06:58:45.865Z,83.41
2023-01-13T07:01:18.765Z,82.02
2023-01-13T07:03:51.768Z,82.46
2023-01-13T07:06:24.544Z,82.10
2023-01-13T07:08:57.551Z,81.39
2023-01-13T07:11:30.334Z,81.12
2023-01-13T07:14:22.347Z,81.98
2023-01-13T07:16:55.440Z,80.99
2023-01-13T07:19:28.313Z,80.72
2023-01-13T07:22:01.085Z,80.19
2023-01-13T07:24:33.922Z,79.28
2023-01-13T07:27:06.679Z,80.34
2023-01-13T07:29:40.884Z,79.61
2023-01-13T07:32:15.558Z,79.65
2023-01-13T07:34:48.660Z,79.78
2023-01-13T07:37:21.414Z,79.50
2023-01-13T07:39:54.222Z,80.29
2023-01-13T07:42:59.170Z,80.41
2023-01-13T07:45:33.390Z,79.60
2023-01-13T07:48:06.758Z,79.88
2023-01-13T07:50:39.602Z,79.87
2023-01-13T07:53:12.563Z,79.73
2023-01-13T07:55:45.364Z,79.39
2023-01-13T07:58:18.143Z,80.19
2023-01-13T08:00:53.668Z,79.03
2023-01-13T08:03:27.965Z,78.89
2023-01-13T08:06:02.159Z,78.99
2023-01-13T08:08:35.291Z,78.71
2023-01-13T08:11:09.438Z,78.65
2023-01-13T08:13:42.223Z,78.51
2023-01-13T08:16:16.796Z,78.08
2023-01-13T08:18:49.623Z,78.39
2023-01-13T08:21:22.375Z,78.73
2023-01-13T08:23:55.431Z,77.58
2023-01-13T08:26:28.387Z,76.90
2023-01-13T08:29:01.150Z,77.17
2023-01-13T08:31:35.331Z,77.10
2023-01-13T08:34:08.095Z,77.72
2023-01-13T08:36:41.124Z,77.54
2023-01-13T08:39:13.860Z,76.71
2023-01-13T08:41:59.181Z,77.46
2023-01-13T08:44:32.872Z,77.45
2023-01-13T08:47:07.079Z,77.22
2023-01-13T08:49:39.964Z,77.21
2023-01-13T08:52:12.767Z,76.02
2023-01-13T08:54:45.561Z,76.22
2023-01-13T08:57:19.451Z,75.39
2023-01-13T08:59:52.376Z,75.53
2023-01-13T09:02:27.271Z,76.36
2023-01-13T09:05:00.335Z,76.46
2023-01-13T09:07:33.186Z,74.80
2023-01-13T09:10:07.686Z,75.43
2023-01-13T09:12:58.472Z,75.79
2023-01-13T09:15:31.321Z,75.49
2023-01-13T09:18:05.581Z,75.14
2023-01-13T09:20:38.485Z,77.64
2023-01-13T09:23:11.593Z,75.40
2023-01-13T09:25:44.523Z,75.88
2023-01-13T09:28:17.548Z,75.99
2023-01-13T09:30:50.561Z,75.72
2023-01-13T09:33:42.395Z,76.01
2023-01-13T09:36:15.288Z,75.53
2023-01-13T09:38:50.033Z,76.39
2023-01-13T09:41:43.372Z,75.61
2023-01-13T09:44:22.462Z,75.16
2023-01-13T09:47:00.935Z,74.65
2023-01-13T09:49:40.014Z,75.87
2023-01-13T09:52:19.182Z,76.29
2023-01-13T09:54:58.719Z,75.30
2023-01-13T09:57:37.453Z,74.83
2023-01-13T10:00:13.780Z,76.06
2023-01-13T10:03:05.066Z,75.50
2023-01-13T10:05:42.285Z,75.11
2023-01-13T10:08:21.210Z,75.65
2023-01-13T10:10:57.041Z,75.29
2023-01-13T10:13:30.914Z,74.23
2023-01-13T10:16:18.727Z,74.00
2023-01-13T10:19:04.334Z,75.27
2023-01-13T10:22:07.288Z,74.07
2023-01-13T10:25:09.829Z,74.40
2023-01-13T10:27:46.659Z,73.90
2023-01-13T10:30:23.814Z,73.23
2023-01-13T10:32:58.822Z,74.78
2023-01-13T10:35:49.825Z,73.94
2023-01-13T10:38:26.975Z,72.53
2023-01-13T10:41:01.237Z,73.91
2023-01-13T10:43:34.114Z,73.97
2023-01-13T10:46:11.206Z,74.48
2023-01-13T10:48:52.104Z,72.96
2023-01-13T10:51:27.572Z,74.55
2023-01-13T10:54:04.455Z,73.43
2023-01-13T10:56:37.234Z,74.33
2023-01-13T10:59:15.559Z,73.95
2023-01-13T11:02:04.021Z,75.49
2023-01-13T11:04:43.530Z,76.21
2023-01-13T11:07:30.640Z,76.54
2023-01-13T11:10:17.396Z,76.56
2023-01-13T11:13:00.120Z,76.29
2023-01-13T11:15:40.792Z,74.72
2023-01-13T11:18:23.105Z,74.61
2023-01-13T11:20:57.370Z,73.79
2023-01-13T11:23:35.309Z,73.20
2023-01-13T11:26:15.591Z,73.10
2023-01-13T11:28:54.220Z,74.28
2023-01-13T11:31:33.305Z,75.54
2023-01-13T11:34:15.097Z,78.89
2023-01-13T11:36:52.499Z,81.37
2023-01-13T11:39:30.933Z,80.87
2023-01-13T11:42:22.182Z,81.80
2023-01-13T11:45:04.557Z,83.32
2023-01-13T11:47:37.873Z,80.97
2023-01-13T11:50:18.562Z,81.03
2023-01-13T11:53:05.376Z,81.61
2023-01-13T11:55:50.491Z,83.50
2023-01-13T11:58:51.386Z,86.67
2023-01-13T12:01:39.159Z,87.33
2023-01-13T12:04:26.885Z,91.48
2023-01-13T12:07:12.789Z,91.63
2023-01-13T12:10:05.212Z,94.66
2023-01-13T12:12:49.846Z,94.81
2023-01-13T12:15:57.109Z,96.68
2023-01-13T12:18:42.790Z,97.07
2023-01-13T12:21:23.697Z,94.68
2023-01-13T12:24:05.059Z,94.38
2023-01-13T12:26:41.724Z,92.67
2023-01-13T12:29:18.918Z,92.31
2023-01-13T12:31:53.669Z,91.08
2023-01-13T12:34:36.483Z,92.19
2023-01-13T12:37:16.593Z,91.02
2023-01-13T12:40:12.162Z,90.84
2023-01-13T12:43:07.305Z,90.49
2023-01-13T12:45:40.135Z,89.29
2023-01-13T12:48:48.982Z,89.25
2023-01-13T12:51:23.924Z,86.25
2023-01-13T12:53:57.291Z,87.06
2023-01-13T12:56:42.024Z,88.03
2023-01-13T12:59:48.905Z,87.80
2023-01-13T13:02:33.619Z,88.62
2023-01-13T13:05:42.636Z,90.69
2023-01-13T13:08:21.605Z,93.48
2023-01-13T13:11:07.567Z,91.59
2023-01-13T13:13:44.359Z,94.14
2023-01-13T13:16:46.537Z,96.38
2023-01-13T13:19:48.087Z,95.78
2023-01-13T13:22:44.017Z,89.88
2023-01-13T13:25:26.132Z,93.63
2023-01-13T13:28:18.745Z,95.59
2023-01-13T13:31:09.479Z,92.70
2023-01-13T13:34:12.610Z,92.93
2023-01-13T13:37:16.514Z,91.70
2023-01-13T13:40:08.483Z,93.24
2023-01-13T13:43:02.054Z,94.53
2023-01-13T13:46:03.723Z,93.29
2023-01-13T13:48:37.187Z,92.96
2023-01-13T13:51:24.948Z,93.41
2023-01-13T13:54:02.609Z,92.63
2023-01-13T13:56:44.582Z,93.27
2023-01-13T13:59:20.525Z,92.94
2023-01-13T14:02:01.326Z,93.21
2023-01-13T14:04:37.045Z,94.23
2023-01-13T14:07:20.434Z,93.95
2023-01-13T14:09:56.381Z,94.84
2023-01-13T14:12:38.423Z,95.03
2023-01-13T14:15:25.834Z,95.55
2023-01-13T14:17:59.366Z,94.56
2023-01-13T14:20:34.590Z,95.06
2023-01-13T14:23:08.162Z,94.89
2023-01-13T14:25:47.838Z,95.00
2023-01-13T14:28:32.175Z,94.77
2023-01-13T14:31:07.502Z,94.91
2023-01-13T14:33:44.095Z,94.08
2023-01-13T14:36:20.193Z,95.69
2023-01-13T14:39:26.991Z,95.95
2023-01-13T14:41:59.775Z,96.11
2023-01-13T14:44:36.841Z,95.10
2023-01-13T14:47:20.946Z,95.96
2023-01-13T14:50:00.359Z,95.92
2023-01-13T14:52:34.903Z,95.41
2023-01-13T14:55:28.608Z,95.68
2023-01-13T14:58:25.055Z,97.31
2023-01-13T15:01:31.036Z,96.88
2023-01-13T15:04:26.427Z,97.04
2023-01-13T15:07:01.276Z,97.58
2023-01-13T15:09:40.847Z,97.07
2023-01-13T15:12:17.992Z,94.93
2023-01-13T15:14:52.085Z,95.35
2023-01-13T15:17:26.261Z,97.67
2023-01-13T15:20:00.728Z,95.13
2023-01-13T15:22:33.500Z,96.85
2023-01-13T15:25:09.448Z,97.18
2023-01-13T15:27:44.175Z,98.50
2023-01-13T15:30:18.680Z,96.85
2023-01-13T15:32:54.870Z,96.95
2023-01-13T15:35:30.397Z,97.60
2023-01-13T15:38:03.190Z,98.00
2023-01-13T15:40:35.983Z,97.82
2023-01-13T15:43:31.652Z,98.83
2023-01-13T15:46:28.390Z,99.47
2023-01-13T15:49:09.652Z,99.46
2023-01-13T15:51:42.486Z,100.00
2023-01-13T15:54:15.361Z,99.16
2023-01-13T15:56:48.298Z,98.83
2023-01-13T15:59:25.045Z,98.86
2023-01-13T16:01:57.855Z,99.43
2023-01-13T16:04:32.118Z,98.82
2023-01-13T16:07:14.544Z,97.59
2023-01-13T16:09:47.964Z,98.26
2023-01-13T16:12:21.054Z,98.70
2023-01-13T16:14:53.850Z,98.84
2023-01-13T16:17:29.935Z,99.14
2023-01-13T16:20:04.885Z,98.92
2023-01-13T16:22:37.688Z,97.71
2023-01-13T16:25:17.467Z,98.60
2023-01-13T16:27:51.532Z,97.31
2023-01-13T16:30:26.943Z,98.34
2023-01-13T16:32:59.782Z,97.07
2023-01-13T16:35:35.206Z,97.59
2023-01-13T16:38:08.062Z,96.40
2023-01-13T16:40:40.877Z,95.02
2023-01-13T16:43:14.779Z,95.01
2023-01-13T16:45:47.557Z,94.28
2023-01-13T16:48:22.638Z,94.10
2023-01-13T16:50:57.053Z,93.06
2023-01-13T16:53:30.078Z,92.15
2023-01-13T16:56:03.185Z,92.18
2023-01-13T16:58:35.977Z,91.77
2023-01-13T17:01:13.177Z,92.31
2023-01-13T17:03:48.998Z,91.51
2023-01-13T17:06:28.237Z,91.01
2023-01-13T17:09:02.116Z,91.47
2023-01-13T17:11:35.546Z,90.24
2023-01-13T17:14:19.330Z,90.56
2023-01-13T17:16:54.794Z,90.50
2023-01-13T17:19:27.809Z,90.31
2023-01-13T17:22:02.181Z,90.80
2023-01-13T17:24:35.131Z,89.83
2023-01-13T17:27:07.977Z,89.06
2023-01-13T17:29:40.913Z,89.88
2023-01-13T17:32:16.958Z,89.72
2023-01-13T17:34:50.133Z,86.66
2023-01-13T17:37:24.338Z,89.90
2023-01-13T17:39:57.114Z,88.94
2023-01-13T17:42:29.952Z,89.54
2023-01-13T17:45:03.164Z,88.38
2023-01-13T17:47:37.029Z,89.68
2023-01-13T17:50:11.578Z,88.79
2023-01-13T17:52:45.700Z,87.68
2023-01-13T17:55:20.890Z,88.54
2023-01-13T17:57:53.684Z,87.34
2023-01-13T18:00:26.456Z,87.90
2023-01-13T18:02:59.279Z,88.24
2023-01-13T18:05:33.932Z,87.97
2023-01-13T18:08:09.475Z,87.81
2023-01-13T18:10:42.304Z,87.34
2023-01-13T18:13:15.527Z,87.29
2023-01-13T18:15:48.349Z,88.01
2023-01-13T18:18:21.175Z,88.69
2023-01-13T18:21:12.208Z,89.29
2023-01-13T18:24:03.842Z,88.54
2023-01-13T18:26:54.653Z,88.98
2023-01-13T18:29:28.391Z,88.60
2023-01-13T18:32:01.311Z,89.09
2023-01-13T18:34:34.313Z,89.86
2023-01-13T18:37:08.759Z,88.93
2023-01-13T18:39:43.691Z,88.54
2023-01-13T18:42:33.838Z,89.05
2023-01-13T18:45:08.944Z,88.39
2023-01-13T18:47:43.223Z,89.46
2023-01-13T18:50:17.163Z,88.03
2023-01-13T18:52:50.502Z,88.63
2023-01-13T18:55:25.715Z,88.31
2023-01-13T18:57:59.040Z,88.89
2023-01-13T19:00:36.479Z,87.61
2023-01-13T19:03:09.358Z,87.38
2023-01-13T19:05:42.834Z,88.11
2023-01-13T19:08:16.033Z,86.74
2023-01-13T19:10:52.679Z,85.94
2023-01-13T19:13:25.458Z,85.94
2023-01-13T19:15:58.513Z,86.92
2023-01-13T19:18:31.281Z,85.21
2023-01-13T19:21:04.684Z,85.99
2023-01-13T19:23:37.915Z,85.06
2023-01-13T19:26:13.547Z,84.21
2023-01-13T19:28:46.406Z,85.49
2023-01-13T19:31:20.497Z,85.01
2023-01-13T19:33:53.385Z,84.63
2023-01-13T19:36:26.841Z,85.70
2023-01-13T19:39:00.068Z,84.23
2023-01-13T19:41:51.976Z,84.50
2023-01-13T19:44:42.272Z,84.59
2023-01-13T19:47:15.119Z,84.88
2023-01-13T19:49:47.938Z,86.80
2023-01-13T19:52:20.737Z,84.91
2023-01-13T19:54:53.780Z,87.15
2023-01-13T19:57:27.989Z,86.64
2023-01-13T20:00:00.807Z,88.53
2023-01-13T20:02:36.419Z,90.54
2023-01-13T20:05:10.350Z,92.13
2023-01-13T20:07:43.172Z,91.50
2023-01-13T20:10:17.023Z,90.13
2023-01-13T20:12:51.652Z,89.62
2023-01-13T20:15:24.764Z,90.06
2023-01-13T20:17:58.661Z,91.19
2023-01-13T20:20:31.519Z,91.39
2023-01-13T20:23:04.627Z,90.85
2023-01-13T20:25:44.259Z,91.26
2023-01-13T20:28:19.852Z,93.43
2023-01-13T20:30:53.309Z,92.30
2023-01-13T20:33:26.102Z,92.54
2023-01-13T20:35:59.352Z,92.32
2023-01-13T20:38:37.322Z,92.32
2023-01-13T20:41:24.255Z,92.34
2023-01-13T20:43:58.456Z,92.60
2023-01-13T20:46:31.265Z,91.85
2023-01-13T20:49:04.471Z,91.63
2023-01-13T20:51:37.552Z,94.80
2023-01-13T20:54:10.383Z,96.12
2023-01-13T20:56:43.507Z,95.03
2023-01-13T20:59:18.171Z,95.49
2023-01-13T21:01:51.066Z,96.21
2023-01-13T21:04:23.873Z,97.22
2023-01-13T21:06:57.011Z,96.92
2023-01-13T21:09:30.405Z,97.76
2023-01-13T21:12:21.261Z,97.41
2023-01-13T21:15:21.178Z,98.48
2023-01-13T21:18:11.676Z,97.39
2023-01-13T21:20:44.562Z,98.36
2023-01-13T21:23:17.346Z,98.19
2023-01-13T21:25:50.196Z,98.11
2023-01-13T21:28:22.956Z,98.01
2023-01-13T21:31:02.698Z,97.79
2023-01-13T21:33:35.783Z,97.53
2023-01-13T21:36:09.521Z,97.51
2023-01-13T21:38:42.436Z,96.49
2023-01-13T21:41:35.194Z,96.13
2023-01-13T21:44:32.714Z,97.74
2023-01-13T21:47:33.070Z,97.45
2023-01-13T21:50:09.881Z,97.90
2023-01-13T21:52:43.437Z,98.29
2023-01-13T21:55:28.187Z,98.84
2023-01-13T21:58:07.587Z,98.00
2023-01-13T22:00:43.557Z,98.14
2023-01-13T22:03:18.614Z,97.54
2023-01-13T22:05:54.118Z,98.31
2023-01-13T22:08:26.937Z,99.04
2023-01-13T22:11:03.408Z,99.40
2023-01-13T22:13:53.835Z,98.75
2023-01-13T22:16:26.973Z,98.08
2023-01-13T22:19:01.246Z,97.51
2023-01-13T22:21:34.442Z,98.20
2023-01-13T22:24:08.388Z,97.77
2023-01-13T22:26:41.151Z,97.12
2023-01-13T22:29:13.924Z,94.67
2023-01-13T22:31:46.761Z,95.06
2023-01-13T22:34:21.008Z,94.97
2023-01-13T22:36:53.847Z,95.26
2023-01-13T22:39:27.244Z,94.31
2023-01-13T22:42:00.037Z,96.03
2023-01-13T22:44:33.877Z,94.24
2023-01-13T22:47:08.452Z,95.00
2023-01-13T22:49:47.370Z,93.24
2023-01-13T22:52:22.196Z,94.22
2023-01-13T22:54:55.309Z,93.18
2023-01-13T22:57:36.150Z,94.67
2023-01-13T23:00:18.664Z,92.23
2023-01-13T23:02:51.428Z,93.08
2023-01-13T23:05:27.599Z,92.62
2023-01-13T23:08:00.595Z,91.81
2023-01-13T23:10:33.885Z,92.29
2023-01-13T23:13:06.975Z,91.63
2023-01-13T23:15:39.722Z,91.13
2023-01-13T23:18:12.540Z,92.65
2023-01-13T23:20:47.032Z,91.62
2023-01-13T23:23:20.297Z,92.29
2023-01-13T23:25:55.396Z,91.18
2023-01-13T23:28:28.188Z,90.65
2023-01-13T23:31:01.079Z,91.60
2023-01-13T23:33:34.003Z,91.51
2023-01-13T23:36:11.457Z,93.71
2023-01-13T23:38:44.453Z,95.16
2023-01-13T23:41:19.249Z,92.74
2023-01-13T23:43:53.235Z,93.33
2023-01-13T23:46:26.967Z,92.80
2023-01-13T23:48:59.851Z,93.15
2023-01-13T23:51:33.953Z,91.49
2023-01-13T23:54:06.959Z,90.21
2023-01-13T23:56:40.025Z,90.84
2023-01-13T23:59:12.785Z,90.08
